createdAt,value
2022-11-24T00:00:11.619Z,92539.23
2022-11-24T00:05:18.347Z,92527.95
2022-11-24T00:10:24.983Z,92497.77
2022-11-24T00:15:32.046Z,92518.30
2022-11-24T00:20:39.091Z,92525.28
2022-11-24T00:25:45.857Z,92521.19
2022-11-24T00:30:53.102Z,92523.77
2022-11-24T00:36:02.058Z,92523.36
2022-11-24T00:41:09.367Z,92544.69
2022-11-24T00:46:18.324Z,92538.02
2022-11-24T00:51:30.212Z,92543.33
2022-11-24T00:56:37.301Z,92548.48
2022-11-24T01:01:44.204Z,92550.82
2022-11-24T01:06:51.299Z,92554.06
2022-11-24T01:12:04.477Z,92553.52
2022-11-24T01:17:11.495Z,92561.30
2022-11-24T01:22:19.143Z,92563.35
2022-11-24T01:27:26.260Z,92550.91
2022-11-24T01:32:34.232Z,92555.02
2022-11-24T01:37:41.179Z,92567.66
2022-11-24T01:42:54.075Z,92582.01
2022-11-24T01:48:02.532Z,92583.22
2022-11-24T01:53:10.423Z,92590.90
2022-11-24T01:58:24.838Z,92591.12
2022-11-24T02:03:35.888Z,92593.70
2022-11-24T02:08:47.461Z,92605.07
2022-11-24T02:13:56.567Z,92597.81
2022-11-24T02:19:05.742Z,92592.51
2022-11-24T02:24:22.653Z,92597.53
2022-11-24T02:29:30.269Z,92598.15
2022-11-24T02:34:37.007Z,92606.98
2022-11-24T02:39:43.889Z,92610.16
2022-11-24T02:44:55.078Z,92612.75
2022-11-24T02:50:01.813Z,92606.63
2022-11-24T02:55:08.803Z,92612.86
2022-11-24T03:00:16.414Z,92605.89
2022-11-24T03:05:23.113Z,92621.09
2022-11-24T03:10:29.827Z,92625.89
2022-11-24T03:15:37.848Z,92637.28
2022-11-24T03:20:44.654Z,92634.03
2022-11-24T03:25:51.415Z,92639.20
2022-11-24T03:30:58.196Z,92638.10
2022-11-24T03:36:05.832Z,92642.30
2022-11-24T03:41:12.834Z,92647.14
2022-11-24T03:46:19.573Z,92651.88
2022-11-24T03:51:26.309Z,92667.11
2022-11-24T03:56:33.044Z,92666.41
2022-11-24T04:01:40.064Z,92674.72
2022-11-24T04:06:46.900Z,92675.11
2022-11-24T04:12:11.300Z,92675.13
2022-11-24T04:17:18.350Z,92682.77
2022-11-24T04:22:25.607Z,92685.17
2022-11-24T04:27:35.524Z,92693.30
2022-11-24T04:32:42.768Z,92700.17
2022-11-24T04:37:50.095Z,92695.39
2022-11-24T04:42:58.667Z,92716.31
2022-11-24T04:48:05.591Z,92713.99
2022-11-24T04:53:14.079Z,92722.72
2022-11-24T04:58:21.199Z,92731.07
2022-11-24T05:03:28.280Z,92733.80
2022-11-24T05:08:35.816Z,92737.53
2022-11-24T05:13:42.762Z,92738.11
2022-11-24T05:18:49.643Z,92754.42
2022-11-24T05:23:56.500Z,92750.95
2022-11-24T05:29:03.309Z,92760.07
2022-11-24T05:34:10.414Z,92762.96
2022-11-24T05:39:17.335Z,92765.28
2022-11-24T05:44:24.333Z,92755.20
2022-11-24T05:49:31.404Z,92762.98
2022-11-24T05:54:38.174Z,92769.76
2022-11-24T05:59:45.288Z,92766.03
2022-11-24T06:04:52.350Z,92774.81
2022-11-24T06:09:59.935Z,92782.99
2022-11-24T06:15:08.967Z,92784.03
2022-11-24T06:20:16.669Z,92798.86
2022-11-24T06:25:23.578Z,92793.14
2022-11-24T06:30:30.491Z,92805.95
2022-11-24T06:35:37.259Z,92808.33
2022-11-24T06:40:44.728Z,92813.51
2022-11-24T06:45:56.177Z,92810.65
2022-11-24T06:51:09.707Z,92821.73
2022-11-24T06:56:20.809Z,92830.13
2022-11-24T07:01:30.401Z,92837.38
2022-11-24T07:06:41.034Z,92850.30
2022-11-24T07:11:48.225Z,92862.96
2022-11-24T07:16:55.363Z,92858.59
2022-11-24T07:22:02.449Z,92862.56
2022-11-24T07:27:09.719Z,92865.19
2022-11-24T07:32:17.654Z,92877.03
2022-11-24T07:37:30.865Z,92880.61
2022-11-24T07:42:33.344Z,92869.83
2022-11-24T07:47:44.077Z,92877.80
2022-11-24T07:52:51.400Z,92886.27
2022-11-24T07:58:03.319Z,92896.29
2022-11-24T08:03:10.487Z,92903.98
2022-11-24T08:08:20.284Z,92916.50
2022-11-24T08:13:27.236Z,92925.02
2022-11-24T08:18:34.928Z,92930.41
2022-11-24T08:23:42.094Z,92933.34
2022-11-24T08:28:52.236Z,92937.48
2022-11-24T08:34:00.595Z,92953.33
2022-11-24T08:39:08.007Z,92959.06
2022-11-24T08:44:16.973Z,92958.27
2022-11-24T08:49:24.449Z,92963.01
2022-11-24T08:54:32.074Z,92968.77
2022-11-24T08:59:38.928Z,92976.01
2022-11-24T09:04:47.660Z,92977.48
2022-11-24T09:09:54.604Z,92981.95
2022-11-24T09:15:02.002Z,92971.03
2022-11-24T09:20:09.938Z,92987.99
2022-11-24T09:25:17.540Z,92981.00
2022-11-24T09:30:25.389Z,92987.61
2022-11-24T09:35:32.239Z,92990.81
2022-11-24T09:40:39.372Z,92983.45
2022-11-24T09:46:05.847Z,92975.09
2022-11-24T09:51:16.742Z,92994.67
2022-11-24T09:56:27.672Z,92999.30
2022-11-24T10:01:41.723Z,93001.33
2022-11-24T10:07:21.242Z,93006.03
2022-11-24T10:12:41.623Z,93008.47
2022-11-24T10:17:59.044Z,93013.00
2022-11-24T10:23:58.774Z,93015.56
2022-11-24T10:29:10.010Z,93032.08
2022-11-24T10:34:32.855Z,93025.89
2022-11-24T10:39:47.123Z,93040.03
2022-11-24T10:45:15.657Z,93041.92
2022-11-24T10:50:40.478Z,93026.64
2022-11-24T10:56:03.290Z,93023.80
2022-11-24T11:01:21.107Z,93022.33
2022-11-24T11:06:33.380Z,93023.55
2022-11-24T11:11:43.012Z,93016.97
2022-11-24T11:16:58.287Z,93023.80
2022-11-24T11:22:15.100Z,93030.53
2022-11-24T11:27:26.860Z,93039.87
2022-11-24T11:37:44.495Z,93031.83
2022-11-24T11:43:21.151Z,93027.56
2022-11-24T11:48:43.086Z,93023.45
2022-11-24T11:54:00.897Z,93039.42
2022-11-24T11:59:37.271Z,93047.72
2022-11-24T12:05:09.398Z,93035.73
2022-11-24T12:10:29.337Z,93051.45
2022-11-24T12:15:58.307Z,93056.77
2022-11-24T12:21:33.633Z,93043.81
2022-11-24T12:27:08.745Z,93048.84
2022-11-24T12:32:35.970Z,93048.08
2022-11-24T12:38:32.273Z,93050.21
2022-11-24T12:43:42.288Z,93063.36
2022-11-24T12:49:17.718Z,93056.60
2022-11-24T12:54:26.122Z,93059.89
2022-11-24T13:00:10.257Z,93059.77
2022-11-24T13:05:36.172Z,93064.95
2022-11-24T13:10:55.877Z,93059.63
2022-11-24T13:21:36.447Z,93052.50
2022-11-24T13:26:52.288Z,93045.02
2022-11-24T13:32:06.422Z,93065.54
2022-11-24T13:37:29.045Z,93056.10
2022-11-24T13:42:41.668Z,93058.72
2022-11-24T13:47:47.850Z,93068.44
2022-11-24T13:53:13.815Z,93077.14
2022-11-24T13:58:27.878Z,93074.28
2022-11-24T14:04:07.072Z,93073.71
2022-11-24T14:08:54.539Z,93075.33
2022-11-24T14:14:04.772Z,93077.20
2022-11-24T14:19:15.959Z,93069.27
2022-11-24T14:24:39.692Z,93080.02
2022-11-24T14:29:55.723Z,93084.14
2022-11-24T14:35:02.792Z,93080.98
2022-11-24T14:40:14.452Z,93101.20
2022-11-24T14:45:21.803Z,93101.65
2022-11-24T14:50:28.961Z,93104.55
2022-11-24T14:55:38.276Z,93110.27
2022-11-24T15:00:45.442Z,93119.22
2022-11-24T15:06:02.812Z,93113.93
2022-11-24T15:11:10.721Z,93117.86
2022-11-24T15:16:20.838Z,93118.39
2022-11-24T15:21:38.733Z,93116.89
2022-11-24T15:26:47.240Z,93125.14
2022-11-24T15:31:54.397Z,93132.69
2022-11-24T15:37:01.873Z,93142.40
2022-11-24T15:42:10.968Z,93139.55
2022-11-24T15:47:18.442Z,93151.86
2022-11-24T15:52:25.464Z,93155.24
2022-11-24T15:57:36.401Z,93152.56
2022-11-24T16:02:43.278Z,93161.52
2022-11-24T16:07:50.254Z,93161.42
2022-11-24T16:12:57.348Z,93174.16
2022-11-24T16:18:06.056Z,93180.07
2022-11-24T16:23:12.899Z,93189.15
2022-11-24T16:28:20.914Z,93184.83
2022-11-24T16:33:30.284Z,93189.94
2022-11-24T16:38:37.150Z,93209.52
2022-11-24T16:43:44.179Z,93217.20
2022-11-24T16:48:55.457Z,93226.03
2022-11-24T16:54:04.762Z,93219.53
2022-11-24T16:59:12.062Z,93221.03
2022-11-24T17:04:19.750Z,93215.41
2022-11-24T17:09:27.299Z,93224.98
2022-11-24T17:14:34.789Z,93239.11
2022-11-24T17:19:41.820Z,93247.87
2022-11-24T17:24:48.909Z,93245.78
2022-11-24T17:29:55.784Z,93251.17
2022-11-24T17:35:03.109Z,93252.27
2022-11-24T17:40:27.848Z,93264.81
2022-11-24T17:45:19.827Z,93273.59
2022-11-24T17:50:26.824Z,93268.56
2022-11-24T17:55:33.729Z,93263.41
2022-11-24T18:00:40.479Z,93273.80
2022-11-24T18:05:47.500Z,93271.90
2022-11-24T18:10:54.757Z,93285.13
2022-11-24T18:16:08.003Z,93295.53
2022-11-24T18:21:17.804Z,93296.25
2022-11-24T18:26:25.890Z,93304.69
2022-11-24T18:31:34.693Z,93309.40
2022-11-24T18:36:42.330Z,93315.35
2022-11-24T18:41:50.202Z,93320.19
2022-11-24T18:46:58.119Z,93329.02
2022-11-24T18:52:05.456Z,93323.25
2022-11-24T18:57:14.463Z,93329.17
2022-11-24T19:02:21.812Z,93329.47
2022-11-24T19:07:28.693Z,93340.45
2022-11-24T19:12:35.786Z,93336.80
2022-11-24T19:17:45.155Z,93341.61
2022-11-24T19:22:51.890Z,93345.64
2022-11-24T19:27:59.526Z,93357.41
2022-11-24T19:33:11.503Z,93357.66
2022-11-24T19:38:18.423Z,93368.19
2022-11-24T19:43:25.501Z,93365.34
2022-11-24T19:48:42.000Z,93382.25
2022-11-24T19:53:50.257Z,93389.91
2022-11-24T20:12:18.899Z,93308.89
2022-11-24T20:17:25.808Z,93408.47
2022-11-24T20:22:32.861Z,93405.21
2022-11-24T20:27:39.943Z,93415.56
2022-11-24T20:32:46.719Z,93424.91
2022-11-24T20:37:54.007Z,93437.25
2022-11-24T20:43:00.867Z,93438.72
2022-11-24T20:48:09.032Z,93447.98
2022-11-24T20:53:15.846Z,93442.27
2022-11-24T20:58:22.556Z,93444.97
2022-11-24T21:03:29.490Z,93451.94
2022-11-24T21:08:39.555Z,93458.92
2022-11-24T21:13:49.075Z,93471.14
2022-11-24T21:18:59.301Z,93466.65
2022-11-24T21:24:15.176Z,93461.81
2022-11-24T21:29:23.904Z,93464.11
2022-11-24T21:34:30.605Z,93462.82
2022-11-24T21:39:37.388Z,93458.31
2022-11-24T21:44:44.069Z,93464.95
2022-11-24T21:49:50.776Z,93466.83
2022-11-24T21:54:57.523Z,93455.24
2022-11-24T22:00:06.280Z,93464.54
2022-11-24T22:05:13.035Z,93466.24
2022-11-24T22:10:19.775Z,93463.56
2022-11-24T22:15:26.502Z,93473.23
2022-11-24T22:20:33.182Z,93476.27
2022-11-24T22:25:39.960Z,93480.13
2022-11-24T22:30:46.660Z,93489.25
2022-11-24T22:36:01.661Z,93491.99
2022-11-24T22:41:12.158Z,93491.84
2022-11-24T22:46:22.920Z,93506.04
2022-11-24T22:51:35.261Z,93497.49
2022-11-24T22:56:42.349Z,93506.31
2022-11-24T23:01:49.158Z,93507.27
2022-11-24T23:06:56.137Z,93504.23
2022-11-24T23:12:03.065Z,93502.75
2022-11-24T23:17:10.270Z,93509.82
2022-11-24T23:22:17.331Z,93511.80
2022-11-24T23:27:24.192Z,93510.52
2022-11-24T23:32:31.020Z,93518.27
2022-11-24T23:38:06.065Z,93518.81
2022-11-24T23:42:49.460Z,93520.12
2022-11-24T23:47:56.821Z,93522.92
2022-11-24T23:53:04.064Z,93521.90
2022-11-24T23:58:11.069Z,93513.93
